Time;durP1;ratioP1;P1;durP2;ratioP2;P2;SDS_P1;SDS_P2;PMS_P1;PMS_P2;Temp;Humidity;BMP_temperature;BMP_pressure;BME280_temperature;BME280_humidity;BME280_pressure;Samples;Min_cycle;Max_cycle;Signal;HPM_P1;HPM_P2
2022/07/25 00:00:00;;;;;;;12.82;9.55;;;22.00;99.90;;;;;;5013893;28;20278;-62
2022/07/25 00:02:26;;;;;;;9.68;8.88;;;21.90;99.90;;;;;;5031073;28;20270;-62
2022/07/25 00:04:51;;;;;;;11.65;8.60;;;21.90;99.90;;;;;;5030276;28;20178;-63
2022/07/25 00:07:17;;;;;;;12.07;8.43;;;21.90;99.90;;;;;;5011497;28;20666;-62
2022/07/25 00:09:43;;;;;;;14.02;8.45;;;21.90;99.90;;;;;;5011810;28;20275;-63
2022/07/25 00:12:09;;;;;;;9.32;8.43;;;21.80;99.90;;;;;;5029755;28;20203;-62
2022/07/25 00:14:34;;;;;;;12.73;8.32;;;21.70;99.90;;;;;;5030807;28;20186;-63
2022/07/25 00:17:01;;;;;;;10.63;8.75;;;21.70;99.90;;;;;;5014382;28;20187;-63
2022/07/25 00:19:26;;;;;;;10.88;9.77;;;21.70;99.90;;;;;;5011428;28;20191;-63
2022/07/25 00:21:52;;;;;;;13.40;9.00;;;21.70;99.90;;;;;;5026065;28;20206;-63
2022/07/25 00:24:18;;;;;;;12.25;9.90;;;21.70;99.90;;;;;;5031548;28;20182;-63
2022/07/25 00:26:43;;;;;;;10.13;9.20;;;21.70;99.90;;;;;;5021720;28;20261;-62
2022/07/25 00:29:09;;;;;;;11.00;8.75;;;21.70;99.90;;;;;;5015184;28;20176;-62
2022/07/25 00:31:35;;;;;;;11.75;9.38;;;21.70;99.90;;;;;;5025931;28;20195;-62
2022/07/25 00:34:00;;;;;;;9.95;8.95;;;21.70;99.90;;;;;;5034764;28;20168;-62
2022/07/25 00:36:26;;;;;;;10.25;9.15;;;21.70;99.90;;;;;;5025024;28;20184;-62
2022/07/25 00:38:52;;;;;;;17.08;9.73;;;21.60;99.90;;;;;;5015111;28;20255;-62
2022/07/25 00:41:17;;;;;;;11.10;8.93;;;21.60;99.90;;;;;;5022143;28;20207;-62
2022/07/25 00:43:44;;;;;;;10.40;9.10;;;21.60;99.90;;;;;;5034508;28;20175;-61
2022/07/25 00:46:16;;;;;;;11.23;9.47;;;21.60;99.90;;;;;;5028529;28;20172;-62
2022/07/25 00:48:42;;;;;;;10.00;8.57;;;21.60;99.90;;;;;;5014984;28;20203;-62
2022/07/25 00:51:10;;;;;;;10.98;8.38;;;21.50;99.90;;;;;;5019309;28;20214;-61
2022/07/25 00:53:36;;;;;;;9.75;8.75;;;21.50;99.90;;;;;;5034187;28;20199;-63
2022/07/25 00:56:02;;;;;;;9.80;7.75;;;21.50;99.90;;;;;;5015258;28;20184;-62
2022/07/25 00:58:28;;;;;;;12.07;9.15;;;21.50;99.90;;;;;;5022073;28;20207;-62
2022/07/25 01:00:54;;;;;;;9.57;8.48;;;21.50;99.90;;;;;;5034251;28;20219;-62
2022/07/25 01:03:20;;;;;;;10.48;8.65;;;21.50;99.90;;;;;;5027803;28;20182;-63
2022/07/25 01:05:46;;;;;;;9.68;8.30;;;21.50;99.90;;;;;;5014475;28;20180;-62
2022/07/25 01:08:12;;;;;;;9.68;8.68;;;21.50;99.90;;;;;;5018303;28;20207;-62
2022/07/25 01:10:38;;;;;;;17.15;7.90;;;21.50;99.90;;;;;;5034142;28;20210;-62
2022/07/25 01:13:04;;;;;;;8.60;7.47;;;21.40;99.90;;;;;;5031802;28;20220;-62
2022/07/25 01:15:30;;;;;;;9.30;8.40;;;21.40;99.90;;;;;;5014010;28;20178;-62
2022/07/25 01:17:56;;;;;;;12.35;10.05;;;21.30;99.90;;;;;;5014762;28;20712;-62
2022/07/25 01:20:23;;;;;;;10.33;9.27;;;21.30;99.90;;;;;;5033817;28;20480;-63
2022/07/25 01:22:50;;;;;;;9.23;8.30;;;21.30;99.90;;;;;;5034180;28;20250;-62
2022/07/25 01:25:16;;;;;;;10.10;7.97;;;21.30;99.90;;;;;;5014670;28;20183;-62
2022/07/25 01:27:42;;;;;;;9.27;8.05;;;21.20;99.90;;;;;;5014165;28;20262;-62
2022/07/25 01:30:11;;;;;;;9.10;8.30;;;21.20;99.90;;;;;;5031075;28;20546;-62
2022/07/25 01:32:37;;;;;;;9.63;8.48;;;21.10;99.90;;;;;;5033712;28;20251;-62
2022/07/25 01:35:07;;;;;;;15.45;8.90;;;21.10;99.90;;;;;;5017218;28;20180;-62
2022/07/25 01:37:33;;;;;;;9.57;8.40;;;21.10;99.90;;;;;;5013160;28;20211;-62
2022/07/25 01:39:58;;;;;;;9.80;8.82;;;21.10;99.90;;;;;;5028384;28;20179;-62
2022/07/25 01:42:24;;;;;;;11.77;8.80;;;21.00;99.90;;;;;;5031654;28;20207;-62
2022/07/25 01:44:50;;;;;;;9.70;8.77;;;21.00;99.90;;;;;;5020225;28;20180;-62
2022/07/25 01:47:16;;;;;;;9.45;8.57;;;21.00;99.90;;;;;;5013591;28;20677;-62
2022/07/25 01:49:42;;;;;;;9.60;8.70;;;21.00;99.90;;;;;;5024653;28;20179;-62
2022/07/25 01:52:08;;;;;;;9.43;8.48;;;20.90;99.90;;;;;;5033352;28;20192;-62
2022/07/25 01:54:33;;;;;;;9.73;8.82;;;20.90;99.90;;;;;;5023375;28;20187;-62
2022/07/25 01:56:59;;;;;;;9.60;7.97;;;20.90;99.90;;;;;;5013674;28;20669;-62
2022/07/25 01:59:24;;;;;;;10.00;9.00;;;20.90;99.90;;;;;;5020694;28;20241;-62
2022/07/25 02:01:50;;;;;;;12.90;9.27;;;20.80;99.90;;;;;;5033296;28;20584;-62
2022/07/25 02:04:16;;;;;;;9.50;8.63;;;20.80;99.90;;;;;;5026952;28;20204;-63
2022/07/25 02:06:41;;;;;;;9.85;9.00;;;20.80;99.90;;;;;;5013336;28;20203;-62
2022/07/25 02:09:08;;;;;;;9.57;8.68;;;20.80;99.90;;;;;;5016888;28;20732;-63
2022/07/25 02:11:35;;;;;;;10.23;9.23;;;20.70;99.90;;;;;;5032975;28;20194;-63
2022/07/25 02:14:00;;;;;;;9.80;8.70;;;20.70;99.90;;;;;;5030487;28;20172;-62
2022/07/25 02:16:26;;;;;;;9.97;8.90;;;20.70;99.90;;;;;;5013018;28;20587;-63
2022/07/25 02:18:52;;;;;;;10.23;9.30;;;20.70;99.90;;;;;;5013172;28;20590;-63
2022/07/25 02:21:18;;;;;;;9.63;8.63;;;20.70;99.90;;;;;;5033248;28;20194;-67
2022/07/25 02:23:43;;;;;;;9.20;8.23;;;20.70;99.90;;;;;;5028239;28;20219;-65
2022/07/25 02:26:11;;;;;;;12.07;9.30;;;20.70;99.90;;;;;;5013676;28;20255;-67
2022/07/25 02:28:36;;;;;;;10.05;9.02;;;20.70;99.90;;;;;;5016891;28;20211;-66
2022/07/25 02:31:02;;;;;;;9.07;8.20;;;20.60;99.90;;;;;;5033551;28;20257;-68
2022/07/25 02:33:28;;;;;;;10.03;8.17;;;20.60;99.90;;;;;;5031526;28;20569;-66
2022/07/25 02:35:54;;;;;;;9.70;8.90;;;20.60;99.90;;;;;;5016701;28;20168;-68
2022/07/25 02:38:20;;;;;;;8.43;7.60;;;20.60;99.90;;;;;;5013749;28;20608;-64
2022/07/25 02:40:46;;;;;;;13.50;8.25;;;20.50;99.90;;;;;;5013747;28;20207;-66
2022/07/25 02:43:12;;;;;;;10.43;9.53;;;20.50;99.90;;;;;;5013733;28;20219;-66
2022/07/25 02:45:37;;;;;;;10.57;9.50;;;20.50;99.90;;;;;;5030903;28;20558;-66
2022/07/25 02:48:03;;;;;;;11.00;9.90;;;20.50;99.90;;;;;;5032914;28;20192;-65
2022/07/25 02:50:29;;;;;;;11.80;8.73;;;20.50;99.90;;;;;;5016603;28;20204;-65
2022/07/25 02:52:55;;;;;;;14.77;13.13;;;20.40;99.90;;;;;;5016003;28;20204;-68
2022/07/25 02:55:20;;;;;;;10.97;9.97;;;20.50;99.90;;;;;;5032673;28;20197;-66
2022/07/25 02:57:46;;;;;;;9.97;9.07;;;20.50;99.90;;;;;;5031642;28;20276;-69
2022/07/25 03:00:12;;;;;;;10.50;9.70;;;20.50;99.90;;;;;;5013156;28;20214;-67
2022/07/25 03:02:38;;;;;;;15.40;14.40;;;20.50;99.90;;;;;;5012913;28;20318;-65
2022/07/25 03:05:08;;;;;;;10.67;9.67;;;20.60;99.90;;;;;;5031790;28;20278;-69
2022/07/25 03:07:34;;;;;;;9.67;8.77;;;20.60;99.90;;;;;;5020872;28;20204;-68
2022/07/25 03:10:00;;;;;;;10.63;9.63;;;20.60;99.90;;;;;;5023393;28;20171;-67
2022/07/25 03:12:26;;;;;;;9.30;8.33;;;20.60;99.90;;;;;;5032153;28;20198;-66
2022/07/25 03:14:52;;;;;;;11.00;8.73;;;20.60;99.90;;;;;;5023427;28;20183;-65
2022/07/25 03:17:17;;;;;;;8.67;8.00;;;20.60;99.90;;;;;;5012850;28;20180;-67
2022/07/25 03:19:43;;;;;;;8.80;8.07;;;20.60;99.90;;;;;;5019515;28;20179;-66
2022/07/25 03:22:09;;;;;;;9.73;8.07;;;20.60;99.90;;;;;;5032640;28;20225;-69
2022/07/25 03:24:35;;;;;;;9.45;8.60;;;20.60;99.90;;;;;;5026887;28;20190;-68
2022/07/25 03:27:01;;;;;;;7.97;7.30;;;20.60;99.90;;;;;;5012760;28;20203;-68
2022/07/25 03:29:26;;;;;;;9.23;8.23;;;20.70;99.90;;;;;;5015288;28;20198;-65
2022/07/25 03:31:52;;;;;;;9.73;8.73;;;20.60;99.90;;;;;;5032419;28;20218;-66
2022/07/25 03:34:17;;;;;;;10.47;9.57;;;20.60;99.90;;;;;;5024682;28;20215;-69
2022/07/25 03:36:43;;;;;;;11.40;10.33;;;20.60;99.90;;;;;;5012554;28;20642;-66
2022/07/25 03:39:09;;;;;;;10.20;9.27;;;20.60;99.90;;;;;;5017875;28;20190;-67
2022/07/25 03:41:34;;;;;;;10.13;9.23;;;20.60;99.90;;;;;;5032305;28;20690;-64
2022/07/25 03:44:00;;;;;;;9.77;8.93;;;20.60;99.90;;;;;;5028490;28;20234;-68
2022/07/25 03:46:25;;;;;;;9.23;8.47;;;20.50;99.90;;;;;;5012356;28;20176;-66
2022/07/25 03:48:51;;;;;;;10.27;9.37;;;20.50;99.90;;;;;;5014355;28;20688;-68
2022/07/25 03:51:17;;;;;;;9.25;8.45;;;20.40;99.90;;;;;;5031764;28;20254;-61
2022/07/25 03:54:00;;;;;;;11.77;10.53;;;20.40;99.90;;;;;;5030972;28;20168;-62
2022/07/25 03:56:31;;;;;;;10.83;9.83;;;20.40;99.90;;;;;;4992147;28;20177;-62
2022/07/25 03:58:56;;;;;;;10.98;10.10;;;20.40;99.90;;;;;;4994646;28;20168;-61
2022/07/25 04:01:22;;;;;;;12.32;11.43;;;20.40;99.90;;;;;;5035451;28;20198;-62
2022/07/25 04:03:48;;;;;;;11.70;10.70;;;20.40;99.90;;;;;;5035205;28;20171;-62
2022/07/25 04:06:13;;;;;;;10.48;9.68;;;20.40;99.90;;;;;;5016314;28;20186;-62
2022/07/25 04:08:39;;;;;;;12.87;11.67;;;20.40;99.90;;;;;;5015350;28;20231;-62
2022/07/25 04:11:04;;;;;;;11.40;10.60;;;20.40;99.90;;;;;;5032282;28;20695;-62
2022/07/25 04:13:30;;;;;;;10.40;9.50;;;20.40;99.90;;;;;;5034870;28;20175;-62
2022/07/25 04:15:56;;;;;;;11.60;9.82;;;20.40;99.90;;;;;;5018488;28;20648;-62
2022/07/25 04:18:22;;;;;;;10.77;9.77;;;20.50;99.90;;;;;;5015410;28;20229;-62
2022/07/25 04:20:47;;;;;;;9.67;8.70;;;20.60;99.90;;;;;;5028527;28;20203;-63
2022/07/25 04:23:13;;;;;;;11.23;10.33;;;20.70;99.90;;;;;;5035192;28;20568;-62
2022/07/25 04:25:39;;;;;;;11.65;10.73;;;20.70;99.90;;;;;;5022560;28;20445;-62
2022/07/25 04:28:04;;;;;;;10.63;9.73;;;20.80;99.90;;;;;;5015313;28;20239;-62
2022/07/25 04:30:30;;;;;;;8.18;7.38;;;20.80;99.90;;;;;;5024705;28;20203;-62
2022/07/25 04:32:55;;;;;;;9.60;8.57;;;21.00;99.90;;;;;;5034667;28;20180;-63
2022/07/25 04:35:21;;;;;;;9.03;8.17;;;21.00;99.90;;;;;;5025943;28;20603;-62
2022/07/25 04:37:47;;;;;;;9.63;7.37;;;21.20;99.90;;;;;;5015234;28;20173;-63
2022/07/25 04:40:13;;;;;;;10.75;8.48;;;21.30;99.90;;;;;;5021134;28;20179;-63
2022/07/25 04:42:39;;;;;;;9.38;8.57;;;21.40;99.90;;;;;;5059523;22;20284;-66
2022/07/25 04:45:05;;;;;;;8.53;7.70;;;21.60;99.90;;;;;;5029445;28;20185;-66
2022/07/25 04:47:30;;;;;;;8.45;7.55;;;21.80;99.90;;;;;;5014921;28;20208;-66
2022/07/25 04:49:56;;;;;;;9.05;7.93;;;22.00;99.90;;;;;;5016530;28;20168;-66
2022/07/25 04:52:21;;;;;;;8.27;7.57;;;22.20;99.90;;;;;;5033659;28;20198;-66
2022/07/25 04:54:47;;;;;;;8.25;7.45;;;22.40;99.90;;;;;;5015246;28;20215;-66
2022/07/25 04:57:13;;;;;;;7.53;6.93;;;22.70;99.90;;;;;;5014764;28;20263;-66
2022/07/25 04:59:38;;;;;;;7.93;7.20;;;23.10;99.90;;;;;;5031451;28;20313;-66
2022/07/25 05:02:04;;;;;;;10.00;8.82;;;23.40;99.90;;;;;;5034430;28;20195;-66
2022/07/25 05:04:30;;;;;;;10.35;9.35;;;23.50;99.90;;;;;;5032281;28;20199;-66
2022/07/25 05:06:55;;;;;;;9.82;8.93;;;23.50;99.90;;;;;;5034369;28;20191;-66
2022/07/25 05:09:21;;;;;;;8.38;7.68;;;23.50;99.90;;;;;;5020576;28;20657;-66
2022/07/25 05:11:47;;;;;;;8.20;7.60;;;23.40;99.90;;;;;;5013080;28;20275;-66
2022/07/25 05:14:12;;;;;;;8.65;7.47;;;23.30;99.90;;;;;;5025651;28;20188;-66
2022/07/25 05:16:38;;;;;;;8.40;7.60;;;23.20;99.90;;;;;;5034034;28;20172;-66
2022/07/25 05:19:03;;;;;;;8.80;8.20;;;23.10;99.90;;;;;;5015755;28;20184;-66
2022/07/25 05:21:29;;;;;;;8.43;7.72;;;23.00;99.90;;;;;;5014340;28;20270;-66
2022/07/25 05:23:55;;;;;;;9.65;8.80;;;22.90;99.90;;;;;;5030090;28;20186;-66
2022/07/25 05:26:20;;;;;;;8.63;7.95;;;22.90;99.90;;;;;;5033966;28;20444;-66
2022/07/25 05:28:46;;;;;;;8.75;7.75;;;22.90;99.90;;;;;;5019035;28;20176;-66
2022/07/25 05:31:11;;;;;;;8.40;7.60;;;22.90;99.90;;;;;;5013862;28;20693;-66
2022/07/25 05:33:37;;;;;;;10.05;7.85;;;22.90;99.90;;;;;;5026521;28;20187;-66
2022/07/25 05:36:04;;;;;;;10.25;7.90;;;22.90;99.90;;;;;;5033725;28;20176;-66
2022/07/25 05:38:29;;;;;;;7.68;7.07;;;22.90;99.90;;;;;;5022026;28;20180;-66
2022/07/25 05:40:55;;;;;;;7.63;7.03;;;22.90;99.90;;;;;;5013903;28;20289;-66
2022/07/25 05:43:21;;;;;;;8.75;7.50;;;23.00;99.90;;;;;;5023135;28;20189;-66
2022/07/25 05:45:46;;;;;;;8.18;7.38;;;23.00;99.90;;;;;;5033732;28;20703;-66
2022/07/25 05:48:13;;;;;;;8.90;7.28;;;23.00;99.90;;;;;;5025237;28;20210;-66
2022/07/25 05:50:39;;;;;;;8.18;7.20;;;23.10;99.90;;;;;;5013628;28;20640;-66
2022/07/25 05:53:05;;;;;;;7.90;7.25;;;23.20;99.90;;;;;;5015930;28;20181;-66
2022/07/25 05:55:31;;;;;;;7.95;7.13;;;23.30;99.90;;;;;;5031118;28;20664;-66
2022/07/25 05:57:56;;;;;;;6.90;6.30;;;23.50;99.90;;;;;;5028440;28;20239;-66
2022/07/25 06:00:22;;;;;;;7.13;6.53;;;23.90;99.90;;;;;;5013546;28;20176;-66
2022/07/25 06:02:48;;;;;;;7.93;7.22;;;24.30;99.90;;;;;;5016156;28;20233;-66
2022/07/25 06:05:14;;;;;;;6.93;6.32;;;24.70;99.90;;;;;;5032992;28;20179;-66
2022/07/25 06:07:40;;;;;;;8.20;7.30;;;25.00;99.90;;;;;;5031699;28;20206;-66
2022/07/25 06:10:06;;;;;;;7.80;6.22;;;25.10;99.90;;;;;;5012916;28;20251;-66
2022/07/25 06:12:32;;;;;;;7.47;6.78;;;25.40;99.90;;;;;;5011126;28;20282;-66
2022/07/25 06:14:59;;;;;;;6.88;6.25;;;25.70;99.90;;;;;;5013210;28;20173;-66
2022/07/25 06:17:24;;;;;;;6.88;6.25;;;26.10;99.90;;;;;;5013109;28;20267;-66
2022/07/25 06:19:50;;;;;;;6.90;6.20;;;26.40;99.90;;;;;;5031028;28;20263;-66
2022/07/25 06:22:15;;;;;;;7.28;6.45;;;26.90;99.90;;;;;;5032256;28;20183;-66
2022/07/25 06:24:41;;;;;;;7.50;6.15;;;27.10;99.90;;;;;;5015842;28;20188;-66
2022/07/25 06:27:07;;;;;;;6.85;6.18;;;27.30;99.90;;;;;;5012683;28;20197;-66
2022/07/25 06:29:33;;;;;;;6.50;5.90;;;27.50;99.90;;;;;;5027043;28;20183;-66
2022/07/25 06:31:59;;;;;;;6.65;6.05;;;27.70;99.90;;;;;;5032709;28;20736;-66
2022/07/25 06:34:24;;;;;;;8.30;7.50;;;28.00;99.90;;;;;;5019666;28;20314;-66
2022/07/25 06:36:50;;;;;;;7.43;6.32;;;28.20;99.90;;;;;;5012826;28;20247;-65
2022/07/25 06:39:15;;;;;;;6.45;5.85;;;28.30;99.90;;;;;;5020001;28;20187;-65
2022/07/25 06:41:41;;;;;;;7.05;6.15;;;28.40;99.90;;;;;;5017272;28;20216;-65
2022/07/25 06:44:07;;;;;;;6.03;5.53;;;28.50;99.90;;;;;;5012491;28;20516;-66
2022/07/25 06:46:32;;;;;;;7.00;6.22;;;28.70;99.90;;;;;;5012515;28;20177;-65
2022/07/25 06:48:58;;;;;;;7.15;6.35;;;28.90;99.90;;;;;;5012943;28;20211;-65
2022/07/25 06:51:24;;;;;;;6.75;5.80;;;28.80;99.90;;;;;;5012284;28;20192;-65
2022/07/25 06:53:50;;;;;;;7.75;5.78;;;28.80;99.90;;;;;;5029285;28;20186;-65
2022/07/25 06:56:16;;;;;;;6.05;5.50;;;28.80;99.90;;;;;;5030350;28;20164;-65
2022/07/25 06:58:41;;;;;;;7.03;5.80;;;28.80;99.90;;;;;;5012389;28;20263;-65
2022/07/25 07:01:07;;;;;;;7.78;6.97;;;28.90;99.90;;;;;;5020386;28;20438;-65
2022/07/25 07:03:36;;;;;;;6.93;6.32;;;28.90;99.90;;;;;;5031780;28;20174;-66
2022/07/25 07:06:03;;;;;;;6.40;5.80;;;29.10;99.90;;;;;;5024821;28;20182;-65
2022/07/25 07:08:29;;;;;;;6.85;6.25;;;29.20;99.90;;;;;;5012071;28;20259;-65
2022/07/25 07:10:55;;;;;;;11.82;6.60;;;29.30;99.90;;;;;;5017248;28;20195;-65
2022/07/25 07:13:22;;;;;;;6.18;5.65;;;29.30;99.90;;;;;;5031887;28;20221;-65
2022/07/25 07:15:49;;;;;;;6.22;5.63;;;29.30;99.90;;;;;;5027817;28;20179;-66
2022/07/25 07:18:21;;;;;;;6.20;5.63;;;29.40;99.90;;;;;;5012025;28;20550;-65
2022/07/25 07:20:47;;;;;;;5.97;5.47;;;29.60;99.90;;;;;;5014840;28;20179;-65
2022/07/25 07:23:13;;;;;;;5.95;5.32;;;29.70;99.90;;;;;;5031655;28;20213;-65
2022/07/25 07:25:39;;;;;;;7.93;6.53;;;29.90;99.90;;;;;;5017260;28;20180;-65
2022/07/25 07:28:05;;;;;;;7.45;5.88;;;29.90;99.90;;;;;;5012029;28;20257;-66
2022/07/25 07:30:31;;;;;;;6.32;5.72;;;29.90;99.90;;;;;;5011579;28;20172;-65
2022/07/25 07:32:57;;;;;;;6.68;6.05;;;29.80;99.90;;;;;;5011771;28;20181;-66
2022/07/25 07:35:24;;;;;;;6.50;5.95;;;29.80;99.90;;;;;;5010515;28;20184;-66
2022/07/25 07:37:54;;;;;;;6.78;5.78;;;29.80;99.90;;;;;;5011928;28;20226;-66
2022/07/25 07:40:21;;;;;;;7.18;6.47;;;29.90;99.90;;;;;;5011806;28;20172;-66
2022/07/25 07:42:48;;;;;;;7.82;5.60;;;30.10;99.90;;;;;;5007035;28;20260;-66
2022/07/25 07:45:16;;;;;;;6.65;6.05;;;30.40;99.90;;;;;;4991725;28;20188;-66
2022/07/25 07:47:41;;;;;;;6.47;5.60;;;30.60;99.90;;;;;;4992312;28;20551;-66
2022/07/25 07:50:09;;;;;;;6.88;5.65;;;30.80;99.90;;;;;;4990855;28;20177;-66
2022/07/25 07:52:35;;;;;;;6.43;5.80;;;31.10;99.90;;;;;;4992021;28;20208;-65
2022/07/25 07:57:45;;;;;;;6.07;5.57;;;31.60;99.90;;;;;;4992116;28;20227;-66
2022/07/25 08:00:12;;;;;;;5.75;5.25;;;31.80;99.90;;;;;;4991980;28;20173;-66
2022/07/25 08:02:51;;;;;;;6.82;6.30;;;32.00;99.90;;;;;;5001103;28;20562;-65
2022/07/25 08:05:22;;;;;;;6.78;5.80;;;32.10;99.90;;;;;;5013160;28;20167;-66
2022/07/25 08:07:50;;;;;;;5.97;5.47;;;32.20;99.90;;;;;;5026439;28;20637;-66
2022/07/25 08:10:17;;;;;;;7.65;5.85;;;32.10;99.90;;;;;;5029505;28;20164;-66
2022/07/25 08:12:43;;;;;;;5.97;5.38;;;32.00;99.90;;;;;;5011301;28;20274;-66
2022/07/25 08:15:09;;;;;;;6.45;5.85;;;31.90;99.90;;;;;;5012100;28;20216;-66
2022/07/25 08:17:35;;;;;;;6.65;5.90;;;31.50;99.90;;;;;;5015782;28;20606;-65
2022/07/25 08:20:05;;;;;;;7.90;5.68;;;31.30;99.90;;;;;;5011608;28;20260;-65
2022/07/25 08:22:42;;;;;;;9.48;6.35;;;31.10;99.90;;;;;;5028943;28;20262;-66
2022/07/25 08:25:09;;;;;;;6.20;5.68;;;30.70;99.90;;;;;;5013005;28;20641;-65
2022/07/25 08:27:35;;;;;;;6.90;6.30;;;30.40;99.90;;;;;;5014882;28;20274;-65
2022/07/25 08:30:05;;;;;;;6.93;5.75;;;30.00;99.90;;;;;;5011409;28;20242;-65
2022/07/25 08:32:31;;;;;;;7.45;6.85;;;29.80;99.90;;;;;;5011045;28;20223;-65
2022/07/25 08:34:58;;;;;;;6.40;5.88;;;29.50;99.90;;;;;;5009533;28;20172;-65
2022/07/25 08:37:24;;;;;;;6.80;5.63;;;29.30;99.90;;;;;;5011176;28;20541;-65
2022/07/25 08:39:50;;;;;;;6.88;5.65;;;29.10;99.90;;;;;;5011261;28;20176;-65
2022/07/25 08:42:19;;;;;;;7.55;6.78;;;29.00;99.90;;;;;;5011011;28;20235;-65
2022/07/25 08:44:53;;;;;;;7.50;6.80;;;28.90;99.90;;;;;;5010655;28;20177;-65
2022/07/25 08:47:20;;;;;;;6.72;6.00;;;28.70;99.90;;;;;;5014664;28;20196;-65
2022/07/25 08:49:45;;;;;;;7.43;6.43;;;28.60;99.90;;;;;;5014811;28;20165;-65
2022/07/25 08:52:12;;;;;;;6.50;5.90;;;28.50;99.90;;;;;;5014683;28;20192;-65
2022/07/25 08:54:37;;;;;;;6.72;6.22;;;28.50;99.90;;;;;;5012279;28;20541;-65
2022/07/25 08:57:03;;;;;;;6.53;6.00;;;28.50;99.90;;;;;;5014513;28;20172;-65
2022/07/25 08:59:31;;;;;;;6.80;6.30;;;28.50;99.90;;;;;;5021968;28;20217;-66
2022/07/25 09:01:59;;;;;;;6.43;5.78;;;28.70;99.90;;;;;;5021743;28;20238;-66
2022/07/25 09:04:25;;;;;;;6.78;5.95;;;29.00;99.90;;;;;;5021746;28;20522;-66
2022/07/25 09:06:51;;;;;;;8.15;6.05;;;29.70;99.90;;;;;;5032429;28;20196;-66
2022/07/25 09:09:17;;;;;;;6.38;5.78;;;30.50;99.90;;;;;;5017011;28;20176;-66
2022/07/25 09:11:43;;;;;;;5.38;4.97;;;31.30;99.90;;;;;;5026339;28;20306;-66
2022/07/25 09:14:10;;;;;;;7.05;5.78;;;32.00;99.90;;;;;;5034129;28;20254;-66
2022/07/25 09:16:38;;;;;;;6.72;5.22;;;32.40;99.90;;;;;;5024356;28;20176;-65
2022/07/25 09:19:19;;;;;;;6.10;5.55;;;32.50;99.90;;;;;;5014311;28;20172;-66
2022/07/25 09:21:56;;;;;;;6.50;5.90;;;32.50;99.90;;;;;;5015232;28;20200;-66
2022/07/25 09:24:22;;;;;;;9.07;5.45;;;32.40;99.90;;;;;;5016602;28;20171;-65
2022/07/25 09:26:49;;;;;;;5.80;5.30;;;32.50;99.90;;;;;;5030486;28;20168;-66
2022/07/25 09:29:27;;;;;;;5.72;5.18;;;32.50;99.90;;;;;;5018098;28;20230;-66
2022/07/25 09:31:54;;;;;;;6.50;5.88;;;32.50;99.90;;;;;;5025916;28;20587;-66
2022/07/25 09:34:39;;;;;;;6.82;6.10;;;31.90;99.90;;;;;;5013512;28;20643;-66
2022/07/25 09:37:11;;;;;;;6.15;5.65;;;31.20;99.90;;;;;;5032713;28;20184;-66
2022/07/25 09:39:45;;;;;;;6.82;5.93;;;30.60;99.90;;;;;;5033541;28;20187;-65
2022/07/25 09:42:24;;;;;;;6.22;5.68;;;30.10;99.90;;;;;;5031211;28;20206;-65
2022/07/25 09:45:02;;;;;;;8.32;6.18;;;29.80;99.90;;;;;;5033073;28;20539;-66
2022/07/25 09:47:29;;;;;;;7.28;6.57;;;29.30;99.90;;;;;;4993931;28;20283;-66
2022/07/25 09:49:55;;;;;;;6.00;5.50;;;28.80;99.90;;;;;;4994451;28;20173;-65
2022/07/25 09:52:21;;;;;;;6.43;5.88;;;28.70;99.90;;;;;;5014275;28;20227;-65
2022/07/25 09:54:47;;;;;;;6.40;5.90;;;28.40;99.90;;;;;;5018790;28;20199;-65
2022/07/25 09:57:13;;;;;;;6.70;6.10;;;28.10;99.90;;;;;;5029520;28;20201;-65
2022/07/25 09:59:39;;;;;;;8.32;6.40;;;27.70;99.90;;;;;;5013483;28;20184;-65
2022/07/25 10:02:09;;;;;;;7.93;6.07;;;27.40;99.90;;;;;;5013438;28;20200;-65
2022/07/25 10:04:48;;;;;;;13.38;6.22;;;27.30;99.90;;;;;;5013205;28;20179;-65
2022/07/25 10:07:18;;;;;;;6.95;6.18;;;27.00;99.90;;;;;;5013993;28;20200;-65
2022/07/25 10:09:45;;;;;;;6.75;6.15;;;26.90;99.90;;;;;;5031846;28;20226;-65
2022/07/25 10:12:14;;;;;;;7.97;5.38;;;26.80;99.90;;;;;;5032567;28;20669;-65
2022/07/25 10:14:40;;;;;;;7.22;6.53;;;26.60;99.90;;;;;;5013028;28;20175;-65
2022/07/25 10:17:07;;;;;;;7.50;6.68;;;26.50;99.90;;;;;;5013154;28;20184;-65
2022/07/25 10:19:38;;;;;;;6.88;6.28;;;26.20;99.90;;;;;;5031906;28;20198;-65
2022/07/25 10:22:04;;;;;;;10.63;7.72;;;26.00;99.90;;;;;;5027311;28;20546;-65
2022/07/25 10:24:34;;;;;;;6.93;6.22;;;25.90;99.90;;;;;;5012624;28;20183;-65
2022/07/25 10:27:07;;;;;;;11.13;7.60;;;25.90;99.90;;;;;;5014042;28;20196;-65
2022/07/25 10:29:34;;;;;;;8.57;7.78;;;25.80;99.90;;;;;;5012885;28;20563;-65
2022/07/25 10:32:11;;;;;;;10.25;9.35;;;25.70;99.90;;;;;;5029986;28;20278;-65
2022/07/25 10:34:38;;;;;;;7.90;7.25;;;25.80;99.90;;;;;;5026495;28;20199;-65
2022/07/25 10:37:14;;;;;;;8.13;7.32;;;25.90;99.90;;;;;;5032051;28;20191;-65
2022/07/25 10:39:43;;;;;;;9.00;7.53;;;26.20;99.90;;;;;;5013742;28;20681;-65
2022/07/25 10:42:15;;;;;;;9.63;8.82;;;26.60;99.90;;;;;;5051763;22;20219;-66
2022/07/25 10:44:47;;;;;;;8.98;5.60;;;27.40;99.90;;;;;;5032463;28;20250;-65
2022/07/25 10:47:15;;;;;;;7.28;5.82;;;28.70;99.90;;;;;;5032369;28;20203;-66
2022/07/25 10:49:44;;;;;;;7.13;5.43;;;29.90;99.90;;;;;;5015371;28;20176;-66
2022/07/25 10:52:18;;;;;;;10.15;5.20;;;30.70;99.90;;;;;;5012349;28;20188;-65
2022/07/25 10:54:57;;;;;;;6.70;4.30;;;31.30;99.90;;;;;;5029218;28;20225;-65
2022/07/25 10:57:23;;;;;;;6.55;4.50;;;31.60;99.90;;;;;;5031236;28;20644;-65
2022/07/25 10:59:49;;;;;;;4.80;4.40;;;32.00;99.90;;;;;;5031981;28;20265;-65
2022/07/25 11:02:16;;;;;;;4.40;4.10;;;31.70;99.90;;;;;;5031842;28;20287;-65
2022/07/25 11:04:56;;;;;;;5.35;4.85;;;31.10;99.90;;;;;;5030868;28;20218;-66
2022/07/25 11:07:22;;;;;;;4.90;4.47;;;30.30;99.90;;;;;;5031639;28;20227;-66
2022/07/25 11:09:56;;;;;;;5.32;4.25;;;29.80;99.90;;;;;;5032012;28;20203;-64
2022/07/25 11:12:22;;;;;;;4.53;4.22;;;29.40;99.90;;;;;;5031443;28;20265;-64
2022/07/25 11:14:48;;;;;;;4.88;4.50;;;29.10;99.90;;;;;;5030951;28;20179;-65
2022/07/25 11:17:22;;;;;;;5.25;4.75;;;29.20;99.90;;;;;;5031315;28;20561;-65
2022/07/25 11:20:07;;;;;;;5.55;4.85;;;29.20;99.90;;;;;;5031418;28;20201;-64
2022/07/25 11:22:34;;;;;;;4.68;4.28;;;29.40;99.90;;;;;;5031484;28;20544;-65
2022/07/25 11:25:01;;;;;;;4.93;4.40;;;29.50;99.90;;;;;;5031215;28;20230;-65
2022/07/25 11:27:27;;;;;;;4.75;4.35;;;29.80;99.90;;;;;;5031525;28;20222;-65
2022/07/25 11:30:14;;;;;;;4.05;3.75;;;30.10;99.90;;;;;;5031435;28;20180;-65
2022/07/25 11:32:45;;;;;;;4.38;4.00;;;30.30;99.90;;;;;;5031553;28;20222;-64
2022/07/25 11:35:13;;;;;;;5.65;4.15;;;30.70;99.90;;;;;;5031081;28;20187;-65
2022/07/25 11:37:41;;;;;;;5.80;4.22;;;30.70;99.90;;;;;;5031590;28;20171;-65
2022/07/25 11:40:08;;;;;;;4.75;4.35;;;30.40;99.90;;;;;;5031440;28;20229;-66
2022/07/25 11:42:51;;;;;;;4.10;3.78;;;30.20;99.90;;;;;;5031236;28;20229;-66
2022/07/25 11:45:28;;;;;;;4.53;4.18;;;30.30;99.90;;;;;;5030847;28;20182;-65
2022/07/25 11:48:08;;;;;;;7.50;4.10;;;30.30;99.90;;;;;;5031683;28;20199;-65
2022/07/25 11:50:40;;;;;;;4.95;4.53;;;30.30;99.90;;;;;;5031125;28;20167;-65
2022/07/25 11:53:08;;;;;;;5.45;5.05;;;30.00;99.90;;;;;;5031630;28;20191;-64
2022/07/25 11:55:41;;;;;;;4.95;4.45;;;29.80;99.90;;;;;;5031270;28;20171;-66
2022/07/25 11:58:08;;;;;;;4.85;4.40;;;29.70;99.90;;;;;;5031625;28;20241;-66
2022/07/25 12:00:42;;;;;;;5.32;4.35;;;29.80;99.90;;;;;;5031253;28;20175;-65
2022/07/25 12:03:11;;;;;;;9.05;4.72;;;29.90;99.90;;;;;;5031420;28;20201;-64
2022/07/25 12:05:36;;;;;;;4.95;4.53;;;29.90;99.90;;;;;;5030907;28;20233;-65
2022/07/25 12:08:15;;;;;;;6.10;4.32;;;30.00;99.90;;;;;;5031457;28;20674;-65
2022/07/25 12:10:42;;;;;;;6.50;4.28;;;30.00;99.90;;;;;;5031238;28;20254;-65
2022/07/25 12:13:09;;;;;;;5.47;4.22;;;30.40;99.90;;;;;;5031293;28;20195;-66
2022/07/25 12:15:37;;;;;;;4.80;4.13;;;30.70;99.90;;;;;;5030890;28;20197;-66
2022/07/25 12:18:03;;;;;;;4.25;3.88;;;30.70;99.90;;;;;;5016419;28;20187;-66
2022/07/25 12:20:33;;;;;;;4.00;3.70;;;30.70;99.90;;;;;;5017956;28;20218;-66
2022/07/25 12:23:05;;;;;;;4.15;3.78;;;30.70;99.90;;;;;;5035000;28;20195;-65
2022/07/25 12:25:32;;;;;;;4.57;3.72;;;30.80;99.90;;;;;;5034649;28;20206;-65
2022/07/25 12:27:59;;;;;;;3.97;3.67;;;31.10;99.90;;;;;;5035283;28;20235;-67
2022/07/25 12:30:26;;;;;;;4.47;3.90;;;31.10;99.90;;;;;;5034844;28;20163;-63
2022/07/25 12:32:52;;;;;;;7.00;4.20;;;30.70;99.90;;;;;;5034904;28;20195;-64
2022/07/25 12:35:17;;;;;;;8.75;3.90;;;30.30;99.90;;;;;;5033998;28;20217;-64
2022/07/25 12:37:43;;;;;;;4.97;4.07;;;30.30;99.90;;;;;;5035108;28;20179;-63
2022/07/25 12:40:11;;;;;;;4.35;3.95;;;30.40;99.90;;;;;;5035109;28;20170;-63
2022/07/25 12:42:36;;;;;;;4.95;4.47;;;30.40;99.90;;;;;;5034766;28;20219;-64
2022/07/25 12:45:02;;;;;;;4.20;3.90;;;30.50;99.90;;;;;;5034423;28;20254;-64